sensor_id;sensor_type;location;lat;lon;timestamp;P1;durP1;ratioP1;P2;durP2;ratioP2
70010;SDS011;59543;37.950;-122.338;2022-11-11T00:01:03;1.40;;;0.88;;
70010;SDS011;59543;37.950;-122.338;2022-11-11T00:03:31;3.08;;;0.98;;
70010;SDS011;59543;37.950;-122.338;2022-11-11T00:06:05;2.22;;;1.35;;
70010;SDS011;59543;37.950;-122.338;2022-11-11T00:08:33;3.03;;;1.02;;
70010;SDS011;59543;37.950;-122.338;2022-11-11T00:11:01;1.08;;;0.82;;
70010;SDS011;59543;37.950;-122.338;2022-11-11T00:13:28;1.40;;;0.60;;
70010;SDS011;59543;37.950;-122.338;2022-11-11T00:15:55;2.15;;;0.70;;
70010;SDS011;59543;37.950;-122.338;2022-11-11T00:18:21;2.58;;;0.90;;
70010;SDS011;59543;37.950;-122.338;2022-11-11T00:21:12;4.20;;;1.50;;
70010;SDS011;59543;37.950;-122.338;2022-11-11T00:23:57;2.03;;;0.98;;
70010;SDS011;59543;37.950;-122.338;2022-11-11T00:26:41;1.67;;;0.68;;
70010;SDS011;59543;37.950;-122.338;2022-11-11T00:29:07;1.13;;;0.63;;
70010;SDS011;59543;37.950;-122.338;2022-11-11T00:31:33;1.77;;;0.60;;
70010;SDS011;59543;37.950;-122.338;2022-11-11T00:34:00;5.30;;;0.80;;
70010;SDS011;59543;37.950;-122.338;2022-11-11T00:36:26;1.48;;;0.57;;
70010;SDS011;59543;37.950;-122.338;2022-11-11T00:38:52;1.55;;;0.63;;
70010;SDS011;59543;37.950;-122.338;2022-11-11T00:41:21;2.33;;;0.52;;
70010;SDS011;59543;37.950;-122.338;2022-11-11T00:43:51;2.83;;;0.80;;
70010;SDS011;59543;37.950;-122.338;2022-11-11T00:46:17;2.22;;;1.10;;
70010;SDS011;59543;37.950;-122.338;2022-11-11T00:49:01;3.03;;;1.17;;
70010;SDS011;59543;37.950;-122.338;2022-11-11T00:51:46;2.90;;;1.15;;
70010;SDS011;59543;37.950;-122.338;2022-11-11T00:54:12;2.33;;;0.70;;
70010;SDS011;59543;37.950;-122.338;2022-11-11T00:56:38;3.38;;;1.17;;
70010;SDS011;59543;37.950;-122.338;2022-11-11T00:59:05;3.15;;;0.90;;
70010;SDS011;59543;37.950;-122.338;2022-11-11T01:01:34;3.90;;;0.88;;
70010;SDS011;59543;37.950;-122.338;2022-11-11T01:04:01;3.45;;;0.80;;
70010;SDS011;59543;37.950;-122.338;2022-11-11T01:06:27;2.67;;;0.90;;
70010;SDS011;59543;37.950;-122.338;2022-11-11T01:08:54;2.38;;;0.80;;
70010;SDS011;59543;37.950;-122.338;2022-11-11T01:11:20;2.13;;;1.00;;
70010;SDS011;59543;37.950;-122.338;2022-11-11T01:13:48;5.32;;;1.20;;
70010;SDS011;59543;37.950;-122.338;2022-11-11T01:16:20;3.83;;;1.08;;
70010;SDS011;59543;37.950;-122.338;2022-11-11T01:18:48;3.25;;;1.52;;
70010;SDS011;59543;37.950;-122.338;2022-11-11T01:21:17;3.63;;;1.70;;
70010;SDS011;59543;37.950;-122.338;2022-11-11T01:23:45;3.67;;;1.92;;
70010;SDS011;59543;37.950;-122.338;2022-11-11T01:26:17;4.38;;;1.95;;
70010;SDS011;59543;37.950;-122.338;2022-11-11T01:28:47;4.15;;;1.73;;
70010;SDS011;59543;37.950;-122.338;2022-11-11T01:31:15;3.20;;;1.52;;
70010;SDS011;59543;37.950;-122.338;2022-11-11T01:33:43;5.35;;;1.38;;
70010;SDS011;59543;37.950;-122.338;2022-11-11T01:36:11;4.05;;;1.30;;
70010;SDS011;59543;37.950;-122.338;2022-11-11T01:38:38;6.05;;;1.63;;
70010;SDS011;59543;37.950;-122.338;2022-11-11T01:41:13;4.55;;;1.08;;
70010;SDS011;59543;37.950;-122.338;2022-11-11T01:49:24;3.30;;;1.48;;
70010;SDS011;59543;37.950;-122.338;2022-11-11T01:51:55;3.05;;;1.17;;
70010;SDS011;59543;37.950;-122.338;2022-11-11T01:59:49;5.97;;;2.00;;
70010;SDS011;59543;37.950;-122.338;2022-11-11T02:02:26;4.03;;;1.90;;
70010;SDS011;59543;37.950;-122.338;2022-11-11T02:04:55;4.20;;;2.33;;
70010;SDS011;59543;37.950;-122.338;2022-11-11T02:07:40;4.38;;;2.15;;
70010;SDS011;59543;37.950;-122.338;2022-11-11T02:10:07;3.63;;;2.15;;
70010;SDS011;59543;37.950;-122.338;2022-11-11T02:12:34;5.30;;;2.15;;
70010;SDS011;59543;37.950;-122.338;2022-11-11T02:15:18;4.30;;;2.13;;
70010;SDS011;59543;37.950;-122.338;2022-11-11T02:17:48;5.72;;;2.30;;
70010;SDS011;59543;37.950;-122.338;2022-11-11T02:20:16;6.50;;;2.58;;
70010;SDS011;59543;37.950;-122.338;2022-11-11T02:22:55;6.07;;;3.03;;
70010;SDS011;59543;37.950;-122.338;2022-11-11T02:25:27;9.00;;;3.08;;
70010;SDS011;59543;37.950;-122.338;2022-11-11T02:27:56;9.23;;;2.78;;
70010;SDS011;59543;37.950;-122.338;2022-11-11T02:30:26;5.25;;;2.45;;
70010;SDS011;59543;37.950;-122.338;2022-11-11T02:32:52;8.65;;;2.63;;
70010;SDS011;59543;37.950;-122.338;2022-11-11T02:35:29;13.68;;;2.97;;
70010;SDS011;59543;37.950;-122.338;2022-11-11T02:37:56;4.78;;;2.90;;
70010;SDS011;59543;37.950;-122.338;2022-11-11T02:40:26;7.05;;;3.15;;
70010;SDS011;59543;37.950;-122.338;2022-11-11T02:42:57;4.97;;;2.35;;
70010;SDS011;59543;37.950;-122.338;2022-11-11T02:45:23;8.70;;;2.38;;
70010;SDS011;59543;37.950;-122.338;2022-11-11T02:47:50;9.18;;;2.53;;
70010;SDS011;59543;37.950;-122.338;2022-11-11T02:50:16;10.80;;;2.90;;
70010;SDS011;59543;37.950;-122.338;2022-11-11T02:52:42;9.75;;;2.90;;
70010;SDS011;59543;37.950;-122.338;2022-11-11T02:55:09;5.40;;;3.08;;
70010;SDS011;59543;37.950;-122.338;2022-11-11T02:57:35;19.58;;;3.67;;
70010;SDS011;59543;37.950;-122.338;2022-11-11T03:00:03;11.30;;;3.40;;
70010;SDS011;59543;37.950;-122.338;2022-11-11T03:02:30;8.95;;;2.90;;
70010;SDS011;59543;37.950;-122.338;2022-11-11T03:04:57;7.18;;;2.72;;
70010;SDS011;59543;37.950;-122.338;2022-11-11T03:07:23;5.00;;;2.30;;
70010;SDS011;59543;37.950;-122.338;2022-11-11T03:09:50;12.93;;;2.58;;
70010;SDS011;59543;37.950;-122.338;2022-11-11T03:12:16;5.72;;;2.25;;
70010;SDS011;59543;37.950;-122.338;2022-11-11T03:14:42;12.80;;;2.22;;
70010;SDS011;59543;37.950;-122.338;2022-11-11T03:17:09;5.75;;;2.10;;
70010;SDS011;59543;37.950;-122.338;2022-11-11T03:19:53;3.95;;;1.80;;
70010;SDS011;59543;37.950;-122.338;2022-11-11T03:22:39;5.22;;;1.90;;
70010;SDS011;59543;37.950;-122.338;2022-11-11T03:27:50;6.10;;;1.98;;
70010;SDS011;59543;37.950;-122.338;2022-11-11T03:30:16;7.45;;;2.40;;
70010;SDS011;59543;37.950;-122.338;2022-11-11T03:35:08;9.07;;;2.63;;
70010;SDS011;59543;37.950;-122.338;2022-11-11T03:37:35;6.88;;;2.35;;
70010;SDS011;59543;37.950;-122.338;2022-11-11T03:40:19;3.92;;;1.80;;
70010;SDS011;59543;37.950;-122.338;2022-11-11T03:45:11;5.15;;;2.05;;
70010;SDS011;59543;37.950;-122.338;2022-11-11T03:47:37;5.57;;;2.30;;
70010;SDS011;59543;37.950;-122.338;2022-11-11T03:50:04;4.78;;;1.85;;
70010;SDS011;59543;37.950;-122.338;2022-11-11T03:52:30;10.73;;;2.20;;
70010;SDS011;59543;37.950;-122.338;2022-11-11T03:54:57;5.13;;;1.88;;
70010;SDS011;59543;37.950;-122.338;2022-11-11T03:57:24;4.03;;;1.73;;
70010;SDS011;59543;37.950;-122.338;2022-11-11T03:59:56;9.82;;;2.00;;
70010;SDS011;59543;37.950;-122.338;2022-11-11T04:02:22;10.77;;;2.00;;
70010;SDS011;59543;37.950;-122.338;2022-11-11T04:05:07;3.65;;;1.70;;
70010;SDS011;59543;37.950;-122.338;2022-11-11T04:07:51;6.38;;;1.88;;
70010;SDS011;59543;37.950;-122.338;2022-11-11T04:10:36;6.15;;;2.53;;
70010;SDS011;59543;37.950;-122.338;2022-11-11T04:13:02;8.23;;;2.72;;
70010;SDS011;59543;37.950;-122.338;2022-11-11T04:15:48;8.90;;;2.50;;
70010;SDS011;59543;37.950;-122.338;2022-11-11T04:18:33;8.57;;;2.42;;
70010;SDS011;59543;37.950;-122.338;2022-11-11T04:21:18;11.82;;;2.78;;
70010;SDS011;59543;37.950;-122.338;2022-11-11T04:24:03;8.93;;;2.83;;
70010;SDS011;59543;37.950;-122.338;2022-11-11T04:26:50;9.43;;;2.70;;
70010;SDS011;59543;37.950;-122.338;2022-11-11T04:29:17;5.38;;;2.50;;
70010;SDS011;59543;37.950;-122.338;2022-11-11T04:31:53;6.15;;;2.47;;
70010;SDS011;59543;37.950;-122.338;2022-11-11T04:34:45;8.18;;;2.25;;
70010;SDS011;59543;37.950;-122.338;2022-11-11T04:37:16;5.85;;;2.65;;
70010;SDS011;59543;37.950;-122.338;2022-11-11T04:39:43;7.60;;;2.65;;
70010;SDS011;59543;37.950;-122.338;2022-11-11T04:42:29;5.63;;;2.45;;
70010;SDS011;59543;37.950;-122.338;2022-11-11T04:44:57;8.55;;;2.58;;
70010;SDS011;59543;37.950;-122.338;2022-11-11T04:47:55;4.05;;;2.70;;
70010;SDS011;59543;37.950;-122.338;2022-11-11T04:50:21;7.05;;;2.80;;
70010;SDS011;59543;37.950;-122.338;2022-11-11T04:52:48;7.13;;;2.72;;
70010;SDS011;59543;37.950;-122.338;2022-11-11T04:55:15;4.15;;;2.40;;
70010;SDS011;59543;37.950;-122.338;2022-11-11T04:58:20;8.00;;;2.85;;
70010;SDS011;59543;37.950;-122.338;2022-11-11T05:00:48;9.52;;;2.55;;
70010;SDS011;59543;37.950;-122.338;2022-11-11T05:03:15;7.53;;;2.75;;
70010;SDS011;59543;37.950;-122.338;2022-11-11T05:05:47;4.45;;;2.40;;
70010;SDS011;59543;37.950;-122.338;2022-11-11T05:08:35;7.03;;;2.85;;
70010;SDS011;59543;37.950;-122.338;2022-11-11T05:11:25;6.57;;;2.72;;
70010;SDS011;59543;37.950;-122.338;2022-11-11T05:13:57;6.97;;;2.53;;
70010;SDS011;59543;37.950;-122.338;2022-11-11T05:16:46;4.80;;;2.35;;
70010;SDS011;59543;37.950;-122.338;2022-11-11T05:19:35;4.55;;;2.35;;
70010;SDS011;59543;37.950;-122.338;2022-11-11T05:22:24;7.10;;;2.42;;
70010;SDS011;59543;37.950;-122.338;2022-11-11T05:24:59;5.47;;;2.30;;
70010;SDS011;59543;37.950;-122.338;2022-11-11T05:27:44;10.27;;;2.78;;
70010;SDS011;59543;37.950;-122.338;2022-11-11T05:30:11;5.90;;;2.20;;
70010;SDS011;59543;37.950;-122.338;2022-11-11T05:32:38;6.80;;;2.30;;
70010;SDS011;59543;37.950;-122.338;2022-11-11T05:35:05;7.45;;;2.70;;
70010;SDS011;59543;37.950;-122.338;2022-11-11T05:37:32;6.68;;;2.17;;
70010;SDS011;59543;37.950;-122.338;2022-11-11T05:39:58;7.90;;;2.17;;
70010;SDS011;59543;37.950;-122.338;2022-11-11T05:42:24;5.20;;;2.50;;
70010;SDS011;59543;37.950;-122.338;2022-11-11T05:44:51;5.43;;;2.03;;
70010;SDS011;59543;37.950;-122.338;2022-11-11T05:47:17;5.75;;;2.30;;
70010;SDS011;59543;37.950;-122.338;2022-11-11T05:52:10;7.57;;;2.17;;
70010;SDS011;59543;37.950;-122.338;2022-11-11T05:54:37;5.68;;;2.20;;
70010;SDS011;59543;37.950;-122.338;2022-11-11T05:57:04;6.00;;;2.20;;
70010;SDS011;59543;37.950;-122.338;2022-11-11T06:01:56;4.30;;;2.05;;
70010;SDS011;59543;37.950;-122.338;2022-11-11T06:04:22;6.82;;;2.35;;
70010;SDS011;59543;37.950;-122.338;2022-11-11T06:06:49;5.30;;;1.90;;
70010;SDS011;59543;37.950;-122.338;2022-11-11T06:09:15;6.65;;;2.03;;
70010;SDS011;59543;37.950;-122.338;2022-11-11T06:11:42;4.07;;;1.67;;
70010;SDS011;59543;37.950;-122.338;2022-11-11T06:14:08;9.15;;;2.28;;
70010;SDS011;59543;37.950;-122.338;2022-11-11T06:16:35;6.72;;;1.92;;
70010;SDS011;59543;37.950;-122.338;2022-11-11T06:19:04;3.97;;;2.10;;
70010;SDS011;59543;37.950;-122.338;2022-11-11T06:21:30;4.78;;;2.30;;
70010;SDS011;59543;37.950;-122.338;2022-11-11T06:24:19;8.95;;;2.10;;
70010;SDS011;59543;37.950;-122.338;2022-11-11T06:26:45;5.13;;;1.98;;
70010;SDS011;59543;37.950;-122.338;2022-11-11T06:31:37;6.63;;;2.58;;
70010;SDS011;59543;37.950;-122.338;2022-11-11T06:34:03;3.78;;;1.85;;
70010;SDS011;59543;37.950;-122.338;2022-11-11T06:38:55;5.50;;;2.40;;
70010;SDS011;59543;37.950;-122.338;2022-11-11T06:41:21;5.82;;;2.15;;
70010;SDS011;59543;37.950;-122.338;2022-11-11T06:43:50;6.65;;;2.10;;
70010;SDS011;59543;37.950;-122.338;2022-11-11T06:46:17;6.00;;;1.98;;
70010;SDS011;59543;37.950;-122.338;2022-11-11T06:48:48;4.80;;;2.15;;
70010;SDS011;59543;37.950;-122.338;2022-11-11T06:51:15;6.15;;;2.15;;
70010;SDS011;59543;37.950;-122.338;2022-11-11T06:53:42;2.97;;;1.63;;
70010;SDS011;59543;37.950;-122.338;2022-11-11T06:56:09;3.58;;;1.77;;
70010;SDS011;59543;37.950;-122.338;2022-11-11T06:58:38;3.50;;;1.70;;
70010;SDS011;59543;37.950;-122.338;2022-11-11T07:01:06;5.68;;;1.80;;
70010;SDS011;59543;37.950;-122.338;2022-11-11T07:03:36;6.57;;;1.80;;
70010;SDS011;59543;37.950;-122.338;2022-11-11T07:06:05;9.27;;;1.83;;
70010;SDS011;59543;37.950;-122.338;2022-11-11T07:08:31;4.05;;;1.65;;
70010;SDS011;59543;37.950;-122.338;2022-11-11T07:10:58;4.65;;;1.95;;
70010;SDS011;59543;37.950;-122.338;2022-11-11T07:13:24;3.97;;;1.95;;
70010;SDS011;59543;37.950;-122.338;2022-11-11T07:18:16;4.55;;;1.80;;
70010;SDS011;59543;37.950;-122.338;2022-11-11T07:20:45;6.75;;;2.05;;
70010;SDS011;59543;37.950;-122.338;2022-11-11T07:23:12;7.18;;;1.88;;
70010;SDS011;59543;37.950;-122.338;2022-11-11T07:28:04;5.78;;;1.83;;
70010;SDS011;59543;37.950;-122.338;2022-11-11T07:32:56;4.00;;;1.40;;
70010;SDS011;59543;37.950;-122.338;2022-11-11T07:37:48;4.43;;;1.73;;
70010;SDS011;59543;37.950;-122.338;2022-11-11T07:40:15;6.75;;;1.80;;
70010;SDS011;59543;37.950;-122.338;2022-11-11T07:42:43;7.75;;;2.05;;
70010;SDS011;59543;37.950;-122.338;2022-11-11T07:45:10;6.25;;;1.55;;
70010;SDS011;59543;37.950;-122.338;2022-11-11T07:47:37;4.38;;;1.75;;
70010;SDS011;59543;37.950;-122.338;2022-11-11T07:50:04;5.70;;;2.05;;
70010;SDS011;59543;37.950;-122.338;2022-11-11T07:52:32;5.40;;;1.90;;
70010;SDS011;59543;37.950;-122.338;2022-11-11T07:54:58;10.10;;;2.30;;
70010;SDS011;59543;37.950;-122.338;2022-11-11T07:59:50;4.63;;;2.38;;
70010;SDS011;59543;37.950;-122.338;2022-11-11T08:04:42;10.02;;;3.40;;
70010;SDS011;59543;37.950;-122.338;2022-11-11T08:07:08;12.57;;;3.65;;
70010;SDS011;59543;37.950;-122.338;2022-11-11T08:09:35;7.03;;;2.17;;
70010;SDS011;59543;37.950;-122.338;2022-11-11T08:12:01;6.47;;;1.88;;
70010;SDS011;59543;37.950;-122.338;2022-11-11T08:14:46;6.85;;;2.10;;
70010;SDS011;59543;37.950;-122.338;2022-11-11T08:19:38;8.00;;;1.90;;
70010;SDS011;59543;37.950;-122.338;2022-11-11T08:24:30;6.75;;;1.73;;
70010;SDS011;59543;37.950;-122.338;2022-11-11T08:29:22;5.50;;;1.90;;
70010;SDS011;59543;37.950;-122.338;2022-11-11T08:34:16;3.42;;;1.50;;
70010;SDS011;59543;37.950;-122.338;2022-11-11T08:39:08;6.30;;;1.90;;
70010;SDS011;59543;37.950;-122.338;2022-11-11T08:44:00;3.95;;;1.60;;
70010;SDS011;59543;37.950;-122.338;2022-11-11T08:48:52;5.50;;;1.73;;
70010;SDS011;59543;37.950;-122.338;2022-11-11T08:51:18;3.40;;;1.50;;
70010;SDS011;59543;37.950;-122.338;2022-11-11T08:53:44;4.13;;;1.60;;
70010;SDS011;59543;37.950;-122.338;2022-11-11T08:56:11;2.70;;;1.50;;
70010;SDS011;59543;37.950;-122.338;2022-11-11T08:58:37;3.10;;;1.50;;
70010;SDS011;59543;37.950;-122.338;2022-11-11T09:01:03;5.68;;;1.67;;
70010;SDS011;59543;37.950;-122.338;2022-11-11T09:03:35;6.40;;;1.60;;
70010;SDS011;59543;37.950;-122.338;2022-11-11T09:06:01;6.18;;;1.90;;
70010;SDS011;59543;37.950;-122.338;2022-11-11T09:10:53;5.13;;;1.70;;
70010;SDS011;59543;37.950;-122.338;2022-11-11T09:15:45;5.07;;;1.83;;
70010;SDS011;59543;37.950;-122.338;2022-11-11T09:20:37;4.93;;;1.80;;
70010;SDS011;59543;37.950;-122.338;2022-11-11T09:23:03;7.78;;;2.17;;
70010;SDS011;59543;37.950;-122.338;2022-11-11T09:27:56;8.25;;;2.03;;
70010;SDS011;59543;37.950;-122.338;2022-11-11T09:30:23;9.90;;;2.15;;
70010;SDS011;59543;37.950;-122.338;2022-11-11T09:32:51;2.75;;;1.38;;
70010;SDS011;59543;37.950;-122.338;2022-11-11T09:35:17;5.00;;;1.83;;
70010;SDS011;59543;37.950;-122.338;2022-11-11T09:37:56;4.97;;;2.30;;
70010;SDS011;59543;37.950;-122.338;2022-11-11T09:40:27;5.13;;;2.10;;
70010;SDS011;59543;37.950;-122.338;2022-11-11T09:43:23;4.43;;;2.15;;
70010;SDS011;59543;37.950;-122.338;2022-11-11T09:46:08;4.40;;;2.05;;
70010;SDS011;59543;37.950;-122.338;2022-11-11T09:54:37;4.90;;;2.15;;
70010;SDS011;59543;37.950;-122.338;2022-11-11T09:57:55;3.58;;;1.70;;
70010;SDS011;59543;37.950;-122.338;2022-11-11T10:00:19;4.28;;;1.95;;
70010;SDS011;59543;37.950;-122.338;2022-11-11T10:02:52;3.67;;;2.03;;
70010;SDS011;59543;37.950;-122.338;2022-11-11T10:05:24;5.45;;;1.90;;
70010;SDS011;59543;37.950;-122.338;2022-11-11T10:08:05;4.10;;;1.75;;
70010;SDS011;59543;37.950;-122.338;2022-11-11T10:10:51;9.85;;;1.90;;
70010;SDS011;59543;37.950;-122.338;2022-11-11T10:13:20;20.02;;;2.28;;
70010;SDS011;59543;37.950;-122.338;2022-11-11T10:18:51;4.70;;;2.03;;
70010;SDS011;59543;37.950;-122.338;2022-11-11T10:21:36;4.97;;;2.03;;
70010;SDS011;59543;37.950;-122.338;2022-11-11T10:24:19;4.53;;;1.83;;
70010;SDS011;59543;37.950;-122.338;2022-11-11T10:26:58;6.35;;;1.80;;
70010;SDS011;59543;37.950;-122.338;2022-11-11T10:29:30;4.47;;;2.03;;
70010;SDS011;59543;37.950;-122.338;2022-11-11T10:34:43;6.95;;;1.98;;
70010;SDS011;59543;37.950;-122.338;2022-11-11T10:37:23;3.13;;;1.73;;
70010;SDS011;59543;37.950;-122.338;2022-11-11T10:42:24;4.30;;;2.13;;
70010;SDS011;59543;37.950;-122.338;2022-11-11T10:47:43;4.38;;;2.00;;
70010;SDS011;59543;37.950;-122.338;2022-11-11T10:53:32;4.53;;;1.90;;
70010;SDS011;59543;37.950;-122.338;2022-11-11T10:58:40;5.22;;;2.20;;
70010;SDS011;59543;37.950;-122.338;2022-11-11T11:01:20;5.30;;;2.40;;
70010;SDS011;59543;37.950;-122.338;2022-11-11T11:03:56;3.53;;;2.15;;
70010;SDS011;59543;37.950;-122.338;2022-11-11T11:06:27;7.70;;;2.45;;
70010;SDS011;59543;37.950;-122.338;2022-11-11T11:08:58;7.10;;;2.55;;
70010;SDS011;59543;37.950;-122.338;2022-11-11T11:11:55;5.80;;;2.03;;
70010;SDS011;59543;37.950;-122.338;2022-11-11T11:14:42;4.53;;;2.13;;
70010;SDS011;59543;37.950;-122.338;2022-11-11T11:17:21;5.25;;;2.20;;
70010;SDS011;59543;37.950;-122.338;2022-11-11T11:22:44;7.53;;;2.15;;
70010;SDS011;59543;37.950;-122.338;2022-11-11T11:25:12;9.77;;;2.60;;
70010;SDS011;59543;37.950;-122.338;2022-11-11T11:27:39;5.05;;;2.10;;
70010;SDS011;59543;37.950;-122.338;2022-11-11T11:32:37;6.78;;;2.30;;
70010;SDS011;59543;37.950;-122.338;2022-11-11T11:35:06;6.65;;;2.58;;
70010;SDS011;59543;37.950;-122.338;2022-11-11T11:37:35;5.15;;;2.25;;
70010;SDS011;59543;37.950;-122.338;2022-11-11T11:40:16;6.40;;;2.45;;
70010;SDS011;59543;37.950;-122.338;2022-11-11T11:42:42;7.60;;;2.88;;
70010;SDS011;59543;37.950;-122.338;2022-11-11T11:50:28;7.88;;;2.95;;
70010;SDS011;59543;37.950;-122.338;2022-11-11T11:53:07;6.18;;;2.65;;
70010;SDS011;59543;37.950;-122.338;2022-11-11T11:56:41;6.82;;;3.03;;
70010;SDS011;59543;37.950;-122.338;2022-11-11T12:04:08;8.68;;;3.00;;
70010;SDS011;59543;37.950;-122.338;2022-11-11T12:09:45;5.20;;;2.47;;
70010;SDS011;59543;37.950;-122.338;2022-11-11T12:17:35;7.10;;;3.03;;
70010;SDS011;59543;37.950;-122.338;2022-11-11T12:23:25;7.25;;;3.03;;
70010;SDS011;59543;37.950;-122.338;2022-11-11T12:28:55;5.72;;;3.20;;
70010;SDS011;59543;37.950;-122.338;2022-11-11T12:31:53;6.40;;;3.30;;
70010;SDS011;59543;37.950;-122.338;2022-11-11T12:34:51;6.63;;;3.10;;
70010;SDS011;59543;37.950;-122.338;2022-11-11T12:37:39;5.90;;;3.10;;
70010;SDS011;59543;37.950;-122.338;2022-11-11T12:43:06;5.28;;;2.80;;
70010;SDS011;59543;37.950;-122.338;2022-11-11T12:45:48;4.68;;;2.78;;
70010;SDS011;59543;37.950;-122.338;2022-11-11T12:53:42;4.30;;;2.70;;
70010;SDS011;59543;37.950;-122.338;2022-11-11T12:59:19;6.28;;;2.50;;
70010;SDS011;59543;37.950;-122.338;2022-11-11T13:02:25;7.10;;;2.97;;
70010;SDS011;59543;37.950;-122.338;2022-11-11T13:11:52;3.97;;;2.83;;
70010;SDS011;59543;37.950;-122.338;2022-11-11T13:16:57;7.88;;;3.30;;
70010;SDS011;59543;37.950;-122.338;2022-11-11T13:22:14;7.15;;;3.35;;
70010;SDS011;59543;37.950;-122.338;2022-11-11T13:24:51;6.15;;;3.05;;
70010;SDS011;59543;37.950;-122.338;2022-11-11T13:27:28;5.85;;;2.88;;
70010;SDS011;59543;37.950;-122.338;2022-11-11T13:32:33;6.68;;;3.03;;
70010;SDS011;59543;37.950;-122.338;2022-11-11T13:35:23;8.63;;;3.30;;
70010;SDS011;59543;37.950;-122.338;2022-11-11T13:37:57;6.50;;;3.03;;
70010;SDS011;59543;37.950;-122.338;2022-11-11T13:40:31;9.30;;;3.20;;
70010;SDS011;59543;37.950;-122.338;2022-11-11T13:42:58;5.28;;;3.03;;
70010;SDS011;59543;37.950;-122.338;2022-11-11T13:45:35;8.27;;;3.30;;
70010;SDS011;59543;37.950;-122.338;2022-11-11T13:48:05;5.97;;;3.30;;
70010;SDS011;59543;37.950;-122.338;2022-11-11T13:50:40;7.07;;;3.25;;
70010;SDS011;59543;37.950;-122.338;2022-11-11T13:56:11;12.30;;;5.00;;
70010;SDS011;59543;37.950;-122.338;2022-11-11T13:58:46;11.73;;;5.60;;
70010;SDS011;59543;37.950;-122.338;2022-11-11T14:01:14;10.32;;;3.58;;
70010;SDS011;59543;37.950;-122.338;2022-11-11T14:13:49;7.85;;;3.40;;
70010;SDS011;59543;37.950;-122.338;2022-11-11T14:27:01;9.63;;;5.03;;
70010;SDS011;59543;37.950;-122.338;2022-11-11T14:29:46;9.90;;;5.05;;
70010;SDS011;59543;37.950;-122.338;2022-11-11T14:40:26;9.88;;;4.10;;
70010;SDS011;59543;37.950;-122.338;2022-11-11T14:42:55;7.45;;;3.95;;
70010;SDS011;59543;37.950;-122.338;2022-11-11T14:47:49;6.07;;;3.33;;
70010;SDS011;59543;37.950;-122.338;2022-11-11T14:52:58;11.90;;;3.60;;
70010;SDS011;59543;37.950;-122.338;2022-11-11T14:55:33;10.10;;;3.10;;
70010;SDS011;59543;37.950;-122.338;2022-11-11T14:58:17;6.25;;;2.40;;
70010;SDS011;59543;37.950;-122.338;2022-11-11T15:00:47;6.88;;;2.70;;
70010;SDS011;59543;37.950;-122.338;2022-11-11T15:11:55;4.68;;;2.42;;
70010;SDS011;59543;37.950;-122.338;2022-11-11T15:19:53;6.97;;;2.75;;
70010;SDS011;59543;37.950;-122.338;2022-11-11T15:22:41;12.20;;;2.88;;
70010;SDS011;59543;37.950;-122.338;2022-11-11T15:31:19;2.78;;;0.77;;
70010;SDS011;59543;37.950;-122.338;2022-11-11T15:37:04;7.35;;;2.35;;
70010;SDS011;59543;37.950;-122.338;2022-11-11T15:39:43;9.93;;;2.70;;
70010;SDS011;59543;37.950;-122.338;2022-11-11T15:42:18;6.15;;;2.50;;
70010;SDS011;59543;37.950;-122.338;2022-11-11T15:45:00;9.70;;;2.38;;
70010;SDS011;59543;37.950;-122.338;2022-11-11T15:47:29;4.40;;;2.30;;
70010;SDS011;59543;37.950;-122.338;2022-11-11T15:50:00;5.90;;;2.50;;
70010;SDS011;59543;37.950;-122.338;2022-11-11T15:54:56;7.60;;;2.45;;
70010;SDS011;59543;37.950;-122.338;2022-11-11T15:57:33;7.38;;;2.28;;
70010;SDS011;59543;37.950;-122.338;2022-11-11T16:02:27;5.57;;;2.55;;
70010;SDS011;59543;37.950;-122.338;2022-11-11T16:04:57;5.13;;;2.63;;
70010;SDS011;59543;37.950;-122.338;2022-11-11T16:07:36;7.10;;;2.70;;
70010;SDS011;59543;37.950;-122.338;2022-11-11T16:10:29;8.18;;;2.65;;
70010;SDS011;59543;37.950;-122.338;2022-11-11T16:12:59;5.32;;;2.65;;
70010;SDS011;59543;37.950;-122.338;2022-11-11T16:15:47;5.90;;;2.75;;
70010;SDS011;59543;37.950;-122.338;2022-11-11T16:23:33;5.95;;;2.85;;
70010;SDS011;59543;37.950;-122.338;2022-11-11T16:26:01;5.88;;;2.88;;
70010;SDS011;59543;37.950;-122.338;2022-11-11T16:28:39;3.88;;;2.83;;
70010;SDS011;59543;37.950;-122.338;2022-11-11T16:33:56;6.47;;;2.88;;
70010;SDS011;59543;37.950;-122.338;2022-11-11T16:36:22;5.55;;;2.78;;
70010;SDS011;59543;37.950;-122.338;2022-11-11T16:41:27;5.85;;;2.90;;
70010;SDS011;59543;37.950;-122.338;2022-11-11T16:43:58;7.72;;;3.45;;
70010;SDS011;59543;37.950;-122.338;2022-11-11T16:49:18;7.97;;;3.38;;
70010;SDS011;59543;37.950;-122.338;2022-11-11T16:51:51;10.80;;;3.67;;
70010;SDS011;59543;37.950;-122.338;2022-11-11T16:54:23;5.30;;;3.20;;
70010;SDS011;59543;37.950;-122.338;2022-11-11T16:56:53;8.90;;;4.03;;
70010;SDS011;59543;37.950;-122.338;2022-11-11T16:59:31;8.07;;;3.80;;
70010;SDS011;59543;37.950;-122.338;2022-11-11T17:02:16;7.68;;;4.40;;
70010;SDS011;59543;37.950;-122.338;2022-11-11T17:07:29;9.40;;;7.47;;
70010;SDS011;59543;37.950;-122.338;2022-11-11T17:12:38;8.40;;;3.70;;
70010;SDS011;59543;37.950;-122.338;2022-11-11T17:15:05;7.28;;;3.45;;
70010;SDS011;59543;37.950;-122.338;2022-11-11T17:17:33;10.35;;;3.40;;
70010;SDS011;59543;37.950;-122.338;2022-11-11T17:20:02;10.63;;;3.72;;
70010;SDS011;59543;37.950;-122.338;2022-11-11T17:22:30;7.80;;;3.25;;
70010;SDS011;59543;37.950;-122.338;2022-11-11T17:24:57;10.18;;;3.65;;
70010;SDS011;59543;37.950;-122.338;2022-11-11T17:27:23;5.20;;;3.25;;
70010;SDS011;59543;37.950;-122.338;2022-11-11T17:29:49;8.18;;;3.38;;
70010;SDS011;59543;37.950;-122.338;2022-11-11T17:32:15;6.00;;;2.75;;
70010;SDS011;59543;37.950;-122.338;2022-11-11T17:34:42;5.72;;;2.97;;
70010;SDS011;59543;37.950;-122.338;2022-11-11T17:37:08;6.90;;;3.13;;
70010;SDS011;59543;37.950;-122.338;2022-11-11T17:39:34;5.18;;;2.88;;
70010;SDS011;59543;37.950;-122.338;2022-11-11T17:42:00;7.38;;;3.45;;
70010;SDS011;59543;37.950;-122.338;2022-11-11T17:44:26;6.22;;;3.30;;
70010;SDS011;59543;37.950;-122.338;2022-11-11T17:46:52;6.25;;;2.70;;
70010;SDS011;59543;37.950;-122.338;2022-11-11T17:49:19;8.60;;;2.72;;
70010;SDS011;59543;37.950;-122.338;2022-11-11T17:51:45;7.15;;;3.20;;
70010;SDS011;59543;37.950;-122.338;2022-11-11T17:54:11;7.75;;;3.60;;
70010;SDS011;59543;37.950;-122.338;2022-11-11T17:56:37;6.70;;;3.72;;
70010;SDS011;59543;37.950;-122.338;2022-11-11T18:01:32;6.90;;;3.50;;
70010;SDS011;59543;37.950;-122.338;2022-11-11T18:03:58;6.95;;;3.40;;
70010;SDS011;59543;37.950;-122.338;2022-11-11T18:06:24;4.90;;;3.28;;
70010;SDS011;59543;37.950;-122.338;2022-11-11T18:08:51;10.10;;;3.88;;
70010;SDS011;59543;37.950;-122.338;2022-11-11T18:11:18;9.32;;;3.83;;
70010;SDS011;59543;37.950;-122.338;2022-11-11T18:13:44;16.45;;;3.70;;
70010;SDS011;59543;37.950;-122.338;2022-11-11T18:16:14;5.90;;;3.67;;
70010;SDS011;59543;37.950;-122.338;2022-11-11T18:18:41;7.10;;;3.58;;
70010;SDS011;59543;37.950;-122.338;2022-11-11T18:21:07;9.35;;;3.83;;
70010;SDS011;59543;37.950;-122.338;2022-11-11T18:23:35;6.47;;;3.75;;
70010;SDS011;59543;37.950;-122.338;2022-11-11T18:26:03;5.85;;;3.90;;
70010;SDS011;59543;37.950;-122.338;2022-11-11T18:28:30;7.43;;;4.15;;
70010;SDS011;59543;37.950;-122.338;2022-11-11T18:31:01;8.63;;;4.05;;